createdAt,value
2018-01-28T00:00:03.232Z,1019.71
2018-01-28T00:01:03.192Z,1019.69
2018-01-28T00:02:03.185Z,1019.77
2018-01-28T00:03:03.113Z,1019.81
2018-01-28T00:04:03.078Z,1019.81
2018-01-28T00:05:03.038Z,1019.80
2018-01-28T00:06:03.001Z,1019.81
2018-01-28T00:07:02.990Z,1019.85
2018-01-28T00:08:02.947Z,1019.81
2018-01-28T00:09:02.909Z,1019.83
2018-01-28T00:10:02.863Z,1019.80
2018-01-28T00:11:02.810Z,1019.70
2018-01-28T00:12:02.775Z,1019.66
2018-01-28T00:13:02.732Z,1019.70
2018-01-28T00:14:02.696Z,1019.67
2018-01-28T00:15:02.660Z,1019.60
2018-01-28T00:16:02.618Z,1019.54
2018-01-28T00:17:02.581Z,1019.42
2018-01-28T00:18:02.545Z,1019.62
2018-01-28T00:19:02.507Z,1019.65
2018-01-28T00:20:02.472Z,1019.64
2018-01-28T00:21:02.465Z,1019.60
2018-01-28T00:22:02.390Z,1019.61
2018-01-28T00:23:02.353Z,1019.60
2018-01-28T00:24:02.320Z,1019.65
2018-01-28T00:25:02.303Z,1019.60
2018-01-28T00:26:02.262Z,1019.56
2018-01-28T00:27:02.226Z,1019.69
2018-01-28T00:28:02.163Z,1019.65
2018-01-28T00:29:02.133Z,1019.69
2018-01-28T00:30:02.086Z,1019.63
2018-01-28T00:31:02.047Z,1019.50
2018-01-28T00:32:02.009Z,1019.57
2018-01-28T00:33:01.999Z,1019.51
2018-01-28T00:34:01.935Z,1019.53
2018-01-28T00:35:01.897Z,1019.53
2018-01-28T00:36:01.853Z,1019.62
2018-01-28T00:37:01.822Z,1019.65
2018-01-28T00:38:01.780Z,1019.55
2018-01-28T00:39:01.744Z,1019.62
2018-01-28T00:40:01.705Z,1019.63
2018-01-28T00:41:01.693Z,1019.52
2018-01-28T00:42:01.629Z,1019.61
2018-01-28T00:43:01.594Z,1019.64
2018-01-28T00:44:01.568Z,1019.68
2018-01-28T00:45:01.516Z,1019.52
2018-01-28T00:46:01.476Z,1019.65
2018-01-28T00:47:01.439Z,1019.60
2018-01-28T00:48:01.429Z,1019.67
2018-01-28T00:49:01.364Z,1019.64
2018-01-28T00:50:01.345Z,1019.68
2018-01-28T00:51:01.287Z,1019.70
2018-01-28T00:52:01.249Z,1019.64
2018-01-28T00:53:01.208Z,1019.67
2018-01-28T00:54:01.176Z,1019.72
2018-01-28T00:55:01.137Z,1019.67
2018-01-28T00:56:01.096Z,1019.64
2018-01-28T00:57:01.060Z,1019.56
2018-01-28T00:58:01.018Z,1019.56
2018-01-28T00:59:00.986Z,1019.57
2018-01-28T01:00:00.942Z,1019.61
2018-01-28T01:01:01.037Z,1019.57
2018-01-28T01:02:00.870Z,1019.59
2018-01-28T01:03:00.827Z,1019.53
2018-01-28T01:04:00.790Z,1019.57
2018-01-28T01:05:00.753Z,1019.50
2018-01-28T01:06:00.716Z,1019.37
2018-01-28T01:07:00.675Z,1019.50
2018-01-28T01:08:00.637Z,1019.51
2018-01-28T01:09:00.598Z,1019.53
2018-01-28T01:10:00.566Z,1019.48
2018-01-28T01:11:00.528Z,1019.39
2018-01-28T01:12:00.515Z,1019.49
2018-01-28T01:13:00.462Z,1019.45
2018-01-28T01:14:00.436Z,1019.50
2018-01-28T01:15:00.369Z,1019.46
2018-01-28T01:16:00.327Z,1019.42
2018-01-28T01:17:00.304Z,1019.44
2018-01-28T01:18:00.270Z,1019.40
2018-01-28T01:19:00.217Z,1019.27
2018-01-28T01:20:00.220Z,1019.30
2018-01-28T01:21:00.137Z,1019.35
2018-01-28T01:22:00.118Z,1019.45
2018-01-28T01:23:00.079Z,1019.48
2018-01-28T01:24:00.027Z,1019.37
2018-01-28T01:24:59.993Z,1019.37
2018-01-28T01:25:59.948Z,1019.34
2018-01-28T01:26:59.937Z,1019.26
2018-01-28T01:27:59.871Z,1019.22
2018-01-28T01:28:59.883Z,1019.34
2018-01-28T01:29:59.791Z,1019.34
2018-01-28T01:30:59.758Z,1019.37
2018-01-28T01:31:59.715Z,1019.44
2018-01-28T01:32:59.682Z,1019.37
2018-01-28T01:33:59.660Z,1019.36
2018-01-28T01:34:59.598Z,1019.31
2018-01-28T01:35:59.585Z,1019.30
2018-01-28T01:36:59.540Z,1019.36
2018-01-28T01:37:59.490Z,1019.63
2018-01-28T01:38:59.447Z,1019.39
2018-01-28T01:39:59.417Z,1019.36
2018-01-28T01:40:59.384Z,1019.48
2018-01-28T01:41:59.348Z,1019.45
2018-01-28T01:42:59.304Z,1019.45
2018-01-28T01:43:59.319Z,1019.42
2018-01-28T01:44:59.235Z,1019.40
2018-01-28T01:45:59.179Z,1019.08
2018-01-28T01:46:59.141Z,1019.14
2018-01-28T01:47:59.105Z,1019.05
2018-01-28T01:48:59.064Z,1019.10
2018-01-28T01:49:59.022Z,1019.15
2018-01-28T01:50:58.991Z,1019.10
2018-01-28T01:51:58.946Z,1019.17
2018-01-28T01:52:58.907Z,1019.22
2018-01-28T01:53:58.910Z,1019.21
2018-01-28T01:54:58.832Z,1019.15
2018-01-28T01:55:58.816Z,1019.35
2018-01-28T01:56:58.754Z,1019.43
2018-01-28T01:57:58.733Z,1019.51
2018-01-28T01:58:58.700Z,1019.51
2018-01-28T01:59:58.638Z,1019.40
2018-01-28T02:00:58.631Z,1019.42
2018-01-28T02:01:58.585Z,1019.44
2018-01-28T02:02:58.532Z,1019.46
2018-01-28T02:03:58.859Z,1019.54
2018-01-28T02:04:58.496Z,1019.65
2018-01-28T02:05:58.418Z,1019.68
2018-01-28T02:06:58.371Z,1019.54
2018-01-28T02:07:58.330Z,1019.40
2018-01-28T02:08:58.478Z,1019.61
2018-01-28T02:09:58.359Z,1019.32
2018-01-28T02:10:59.498Z,1019.59
2018-01-28T02:11:58.998Z,1019.54
2018-01-28T02:12:58.999Z,1019.49
2018-01-28T02:13:58.121Z,1019.44
2018-01-28T02:14:58.084Z,1019.53
2018-01-28T02:15:58.036Z,1019.46
2018-01-28T02:16:57.986Z,1019.62
2018-01-28T02:17:57.955Z,1019.70
2018-01-28T02:18:57.919Z,1019.84
2018-01-28T02:19:57.874Z,1019.84
2018-01-28T02:20:57.836Z,1019.91
2018-01-28T02:21:57.797Z,1019.68
2018-01-28T02:22:57.793Z,1019.86
2018-01-28T02:23:57.715Z,1019.72
2018-01-28T02:24:57.681Z,1019.65
2018-01-28T02:25:57.688Z,1019.82
2018-01-28T02:26:57.633Z,1019.61
2018-01-28T02:27:57.566Z,1019.85
2018-01-28T02:28:57.533Z,1019.62
2018-01-28T02:29:57.510Z,1019.59
2018-01-28T02:30:57.463Z,1019.74
2018-01-28T02:31:57.464Z,1019.63
2018-01-28T02:32:57.400Z,1019.55
2018-01-28T02:33:57.336Z,1019.64
2018-01-28T02:34:57.303Z,1019.50
2018-01-28T02:35:57.257Z,1019.23
2018-01-28T02:36:57.248Z,1019.49
2018-01-28T02:37:57.223Z,1019.51
2018-01-28T02:38:57.148Z,1019.41
2018-01-28T02:39:57.114Z,1019.48
2018-01-28T02:40:57.088Z,1019.52
2018-01-28T02:41:57.060Z,1019.42
2018-01-28T02:42:56.992Z,1019.52
2018-01-28T02:43:57.023Z,1019.37
2018-01-28T02:44:56.911Z,1019.30
2018-01-28T02:45:56.876Z,1019.32
2018-01-28T02:46:56.838Z,1019.18
2018-01-28T02:47:56.800Z,1019.39
2018-01-28T02:48:56.761Z,1019.33
2018-01-28T02:51:35.059Z,1019.46
2018-01-28T02:52:34.699Z,1019.34
2018-01-28T02:53:34.658Z,1019.51
2018-01-28T02:54:34.624Z,1019.24
2018-01-28T02:55:34.585Z,1019.32
2018-01-28T02:56:34.544Z,1019.41
2018-01-28T02:57:34.509Z,1019.15
2018-01-28T02:58:34.470Z,1019.29
2018-01-28T02:59:34.430Z,1019.34
2018-01-28T03:00:34.424Z,1019.49
2018-01-28T03:01:34.354Z,1019.38
2018-01-28T03:02:34.318Z,1019.26
2018-01-28T03:03:34.294Z,1019.50
2018-01-28T03:04:34.237Z,1019.49
2018-01-28T03:05:34.201Z,1019.21
2018-01-28T03:06:34.162Z,1019.29
2018-01-28T03:07:34.149Z,1019.45
2018-01-28T03:08:34.084Z,1019.49
2018-01-28T03:09:34.053Z,1019.44
2018-01-28T03:10:34.040Z,1019.43
2018-01-28T03:11:33.976Z,1019.50
2018-01-28T03:12:33.947Z,1019.30
2018-01-28T03:13:33.898Z,1019.00
2018-01-28T03:14:33.874Z,1019.55
2018-01-28T03:15:33.832Z,1019.56
2018-01-28T03:16:33.798Z,1019.44
2018-01-28T03:17:33.738Z,1019.60
2018-01-28T03:18:33.733Z,1019.70
2018-01-28T03:19:33.665Z,1019.58
2018-01-28T03:20:33.623Z,1019.65
2018-01-28T03:21:33.587Z,1019.55
2018-01-28T03:22:33.567Z,1019.76
2018-01-28T03:23:33.513Z,1019.37
2018-01-28T03:24:33.469Z,1019.49
2018-01-28T03:25:33.471Z,1019.60
2018-01-28T03:26:33.404Z,1019.53
2018-01-28T03:27:33.401Z,1019.48
2018-01-28T03:28:33.322Z,1019.40
2018-01-28T03:29:33.279Z,1019.73
2018-01-28T03:30:33.244Z,1019.52
2018-01-28T03:31:33.208Z,1019.47
2018-01-28T03:32:33.162Z,1019.76
2018-01-28T03:33:33.143Z,1019.79
2018-01-28T03:34:33.105Z,1019.74
2018-01-28T03:35:33.045Z,1019.73
2018-01-28T03:36:33.009Z,1019.60
2018-01-28T03:37:32.973Z,1019.65
2018-01-28T03:38:32.936Z,1019.80
2018-01-28T03:39:32.896Z,1019.70
2018-01-28T03:40:32.877Z,1019.85
2018-01-28T03:41:32.820Z,1019.81
2018-01-28T03:42:32.794Z,1019.95
2018-01-28T03:43:32.788Z,1019.89
2018-01-28T03:44:32.705Z,1019.93
2018-01-28T03:45:32.677Z,1019.74
2018-01-28T03:46:32.644Z,1019.98
2018-01-28T03:47:32.592Z,1019.76
2018-01-28T03:48:32.575Z,1019.77
2018-01-28T03:49:32.513Z,1019.90
2018-01-28T03:50:32.475Z,1019.75
2018-01-28T03:51:32.438Z,1019.94
2018-01-28T03:52:32.399Z,1019.86
2018-01-28T03:53:32.386Z,1019.87
2018-01-28T03:54:32.328Z,1019.86
2018-01-28T03:55:32.282Z,1019.82
2018-01-28T03:56:32.246Z,1019.85
2018-01-28T03:57:32.223Z,1019.76
2018-01-28T03:58:32.174Z,1019.92
2018-01-28T03:59:32.131Z,1019.82
2018-01-28T04:00:32.090Z,1019.70
2018-01-28T04:01:32.064Z,1019.90
2018-01-28T04:02:32.015Z,1019.93
2018-01-28T04:03:31.994Z,1019.86
2018-01-28T04:04:31.952Z,1019.93
2018-01-28T04:05:31.906Z,1019.73
2018-01-28T04:06:31.871Z,1019.94
2018-01-28T04:07:31.869Z,1019.93
2018-01-28T04:08:31.786Z,1019.82
2018-01-28T04:09:31.776Z,1019.79
2018-01-28T04:10:31.708Z,1019.76
2018-01-28T04:11:31.693Z,1019.93
2018-01-28T04:12:31.629Z,1019.80
2018-01-28T04:13:31.591Z,1019.79
2018-01-28T04:14:31.557Z,1019.68
2018-01-28T04:15:31.545Z,1019.71
2018-01-28T04:16:31.574Z,1019.80
2018-01-28T04:17:31.460Z,1019.77
2018-01-28T04:18:31.416Z,1019.69
2018-01-28T04:19:31.384Z,1019.77
2018-01-28T04:20:31.326Z,1019.82
2018-01-28T04:21:31.282Z,1019.73
2018-01-28T04:22:31.265Z,1019.68
2018-01-28T04:23:31.231Z,1019.73
2018-01-28T04:24:31.174Z,1019.17
2018-01-28T04:25:31.142Z,1019.57
2018-01-28T04:26:31.124Z,1019.58
2018-01-28T04:27:31.071Z,1019.49
2018-01-28T04:28:31.032Z,1019.68
2018-01-28T04:29:30.981Z,1019.53
2018-01-28T04:30:30.953Z,1019.51
2018-01-28T04:31:30.942Z,1019.59
2018-01-28T04:32:30.903Z,1019.68
2018-01-28T04:33:30.840Z,1019.66
2018-01-28T04:34:30.786Z,1019.62
2018-01-28T04:35:30.747Z,1019.59
2018-01-28T04:36:30.747Z,1019.67
2018-01-28T04:37:30.671Z,1019.55
2018-01-28T04:38:30.657Z,1019.97
2018-01-28T04:39:30.610Z,1019.96
2018-01-28T04:40:30.567Z,1019.59
2018-01-28T04:41:30.519Z,1020.01
2018-01-28T04:42:30.481Z,1020.00
2018-01-28T04:43:30.442Z,1019.99
2018-01-28T04:44:30.407Z,1019.99
2018-01-28T04:45:30.410Z,1020.06
2018-01-28T04:46:30.325Z,1020.02
2018-01-28T04:47:30.307Z,1019.94
2018-01-28T04:48:30.249Z,1020.10
2018-01-28T04:49:30.226Z,1019.93
2018-01-28T04:50:30.196Z,1020.03
2018-01-28T04:51:30.157Z,1019.95
2018-01-28T04:52:30.096Z,1020.06
2018-01-28T04:53:30.060Z,1019.97
2018-01-28T04:54:30.043Z,1020.08
2018-01-28T04:55:29.988Z,1020.04
2018-01-28T04:56:29.958Z,1020.01
2018-01-28T04:57:29.912Z,1020.08
2018-01-28T04:58:29.901Z,1020.06
2018-01-28T04:59:29.833Z,1020.15
2018-01-28T05:00:29.796Z,1020.14
2018-01-28T05:01:29.784Z,1020.26
2018-01-28T05:02:29.728Z,1020.30
2018-01-28T05:03:29.685Z,1020.24
2018-01-28T05:04:29.655Z,1020.09
2018-01-28T05:05:29.619Z,1019.70
2018-01-28T05:06:29.561Z,1020.18
2018-01-28T05:07:29.547Z,1020.19
2018-01-28T05:08:29.502Z,1020.08
2018-01-28T05:09:29.487Z,1020.15
2018-01-28T05:10:29.425Z,1020.17
2018-01-28T05:11:29.371Z,1020.23
2018-01-28T05:12:29.352Z,1020.20
2018-01-28T05:13:29.326Z,1020.19
2018-01-28T05:14:29.258Z,1020.18
2018-01-28T05:15:29.221Z,1020.21
2018-01-28T05:16:29.199Z,1020.12
2018-01-28T05:17:29.141Z,1020.05
2018-01-28T05:18:29.124Z,1020.05
2018-01-28T05:19:29.061Z,1020.12
2018-01-28T05:20:29.033Z,1020.04
2018-01-28T05:21:29.042Z,1020.14
2018-01-28T05:22:28.960Z,1020.08
2018-01-28T05:23:28.921Z,1020.11
2018-01-28T05:24:28.913Z,1020.11
2018-01-28T05:25:28.863Z,1020.13
2018-01-28T05:26:28.813Z,1020.17
2018-01-28T05:27:28.772Z,1020.28
2018-01-28T05:28:28.721Z,1020.36
2018-01-28T05:29:28.682Z,1020.23
2018-01-28T05:30:28.647Z,1020.26
2018-01-28T05:31:28.607Z,1020.26
2018-01-28T05:32:28.612Z,1020.17
2018-01-28T05:33:28.548Z,1020.26
2018-01-28T05:34:28.525Z,1020.33
2018-01-28T05:35:28.467Z,1020.32
2018-01-28T05:36:28.416Z,1020.26
2018-01-28T05:37:28.376Z,1020.24
2018-01-28T05:38:28.351Z,1020.16
2018-01-28T05:39:28.324Z,1020.30
2018-01-28T05:40:28.264Z,1020.22
2018-01-28T05:41:28.301Z,1020.38
2018-01-28T05:42:28.189Z,1020.36
2018-01-28T05:43:28.148Z,1020.37
2018-01-28T05:44:28.118Z,1020.36
2018-01-28T05:45:28.149Z,1020.50
2018-01-28T05:46:28.032Z,1020.56
2018-01-28T05:47:28.030Z,1020.60
2018-01-28T05:48:27.958Z,1020.60
2018-01-28T05:49:27.921Z,1020.65
2018-01-28T05:50:27.897Z,1020.71
2018-01-28T05:51:27.886Z,1020.68
2018-01-28T05:52:27.809Z,1020.73
2018-01-28T05:53:27.805Z,1020.52
2018-01-28T05:54:27.727Z,1020.67
2018-01-28T05:55:27.689Z,1020.61
2018-01-28T05:56:27.652Z,1020.63
2018-01-28T05:57:27.642Z,1020.56
2018-01-28T05:58:27.572Z,1020.58
2018-01-28T05:59:27.552Z,1020.58
2018-01-28T06:00:27.511Z,1020.66
2018-01-28T06:01:27.486Z,1020.62
2018-01-28T06:02:27.436Z,1020.66
2018-01-28T06:03:27.400Z,1020.67
2018-01-28T06:04:27.346Z,1020.58
2018-01-28T06:05:27.305Z,1020.68
2018-01-28T06:06:27.273Z,1020.69
2018-01-28T06:07:27.232Z,1020.77
2018-01-28T06:08:27.193Z,1020.75
2018-01-28T06:09:27.165Z,1020.64
2018-01-28T06:10:27.115Z,1020.80
2018-01-28T06:11:27.080Z,1020.73
2018-01-28T06:12:27.039Z,1020.78
2018-01-28T06:13:27.002Z,1020.66
2018-01-28T06:14:26.962Z,1020.65
2018-01-28T06:15:26.944Z,1020.79
2018-01-28T06:16:26.919Z,1020.65
2018-01-28T06:17:26.863Z,1020.65
2018-01-28T06:18:26.810Z,1020.66
2018-01-28T06:19:26.772Z,1020.54
2018-01-28T06:20:26.734Z,1020.31
2018-01-28T06:21:26.695Z,1020.44
2018-01-28T06:22:26.680Z,1020.60
2018-01-28T06:23:26.643Z,1020.65
2018-01-28T06:24:26.581Z,1020.60
2018-01-28T06:25:26.546Z,1020.59
2018-01-28T06:26:26.504Z,1020.58
2018-01-28T06:27:26.495Z,1020.68
2018-01-28T06:28:26.428Z,1020.65
2018-01-28T06:29:26.406Z,1020.72
2018-01-28T06:30:26.351Z,1020.59
2018-01-28T06:31:26.313Z,1020.68
2018-01-28T06:32:26.280Z,1020.75
2018-01-28T06:33:26.236Z,1020.80
2018-01-28T06:34:26.196Z,1020.72
2018-01-28T06:35:26.180Z,1020.78
2018-01-28T06:36:26.122Z,1020.92
2018-01-28T06:37:26.082Z,1020.93
2018-01-28T06:38:26.056Z,1020.91
2018-01-28T06:39:26.038Z,1020.94
2018-01-28T06:40:25.973Z,1020.95
2018-01-28T06:41:25.977Z,1021.01
2018-01-28T06:42:25.926Z,1020.88
2018-01-28T06:43:25.866Z,1020.92
2018-01-28T06:44:25.830Z,1021.00
2018-01-28T06:45:25.794Z,1020.90
2018-01-28T06:46:25.745Z,1020.87
2018-01-28T06:47:25.704Z,1020.82
2018-01-28T06:48:26.281Z,1020.89
2018-01-28T06:49:26.279Z,1020.96
2018-01-28T06:50:25.584Z,1020.94
2018-01-28T06:51:25.560Z,1020.87
2018-01-28T06:52:25.510Z,1021.00
2018-01-28T06:53:25.481Z,1021.01
2018-01-28T06:54:25.437Z,1021.00
2018-01-28T06:55:25.417Z,1021.07
2018-01-28T06:56:25.358Z,1021.11
2018-01-28T06:57:25.318Z,1021.04
2018-01-28T06:58:25.289Z,1021.07
2018-01-28T06:59:25.278Z,1021.15
2018-01-28T07:00:25.219Z,1021.02
2018-01-28T07:01:25.171Z,1021.07
2018-01-28T07:02:25.149Z,1021.10
2018-01-28T07:03:25.088Z,1021.00
2018-01-28T07:04:25.054Z,1021.10
2018-01-28T07:05:25.017Z,1021.18
2018-01-28T07:06:25.015Z,1021.17
2018-01-28T07:07:24.955Z,1021.13
2018-01-28T07:08:24.925Z,1021.17
2018-01-28T07:09:24.869Z,1021.20
2018-01-28T07:10:24.822Z,1021.04
2018-01-28T07:11:24.850Z,1021.17
2018-01-28T07:12:24.790Z,1021.14
2018-01-28T07:13:24.730Z,1021.16
2018-01-28T07:14:24.710Z,1021.23
2018-01-28T07:15:24.656Z,1021.26
2018-01-28T07:16:24.608Z,1021.41
2018-01-28T07:17:24.558Z,1021.28
2018-01-28T07:18:24.535Z,1021.44
2018-01-28T07:19:24.480Z,1021.45
2018-01-28T07:20:24.446Z,1021.51
2018-01-28T07:21:24.411Z,1021.60
2018-01-28T07:22:24.376Z,1021.45
2018-01-28T07:23:24.343Z,1021.34
2018-01-28T07:24:24.300Z,1021.42
2018-01-28T07:25:24.485Z,1021.37
2018-01-28T07:26:24.227Z,1021.49
2018-01-28T07:27:24.180Z,1021.60
2018-01-28T07:28:24.243Z,1021.44
2018-01-28T07:29:24.122Z,1021.52
2018-01-28T07:30:24.064Z,1021.55
2018-01-28T07:31:24.033Z,1021.54
2018-01-28T07:32:24.079Z,1021.54
2018-01-28T07:33:23.968Z,1021.52
2018-01-28T07:34:23.922Z,1021.51
2018-01-28T07:35:23.886Z,1021.53
2018-01-28T07:36:23.833Z,1021.64
2018-01-28T07:37:23.825Z,1021.58
2018-01-28T07:38:23.756Z,1021.53
2018-01-28T07:39:23.750Z,1021.71
2018-01-28T07:40:23.701Z,1021.67
2018-01-28T07:41:23.646Z,1021.62
2018-01-28T07:42:23.605Z,1021.60
2018-01-28T07:43:23.568Z,1021.69
2018-01-28T07:44:23.530Z,1021.62
2018-01-28T07:45:23.492Z,1021.38
2018-01-28T07:46:23.455Z,1021.59
2018-01-28T07:47:23.417Z,1021.57
2018-01-28T07:48:23.377Z,1021.57
2018-01-28T07:49:23.339Z,1021.57
2018-01-28T07:50:23.303Z,1021.50
2018-01-28T07:51:23.265Z,1021.63
2018-01-28T07:52:23.225Z,1021.44
2018-01-28T07:53:23.188Z,1021.73
2018-01-28T07:54:23.151Z,1021.49
2018-01-28T07:55:23.113Z,1021.73
2018-01-28T07:56:23.076Z,1021.72
2018-01-28T07:57:23.037Z,1021.67
2018-01-28T07:58:23.000Z,1021.71
2018-01-28T07:59:22.960Z,1021.75
2018-01-28T08:00:22.925Z,1021.79
2018-01-28T08:01:22.885Z,1021.85
2018-01-28T08:02:22.849Z,1021.67
2018-01-28T08:03:22.810Z,1021.75
2018-01-28T08:04:22.773Z,1021.97
2018-01-28T08:05:22.783Z,1021.89
2018-01-28T08:06:22.695Z,1021.93
2018-01-28T08:07:22.658Z,1021.79
2018-01-28T08:08:22.620Z,1021.84
2018-01-28T08:09:22.584Z,1021.94
2018-01-28T08:10:22.542Z,1022.01
2018-01-28T08:11:22.506Z,1021.86
2018-01-28T08:12:22.472Z,1022.04
2018-01-28T08:13:22.430Z,1022.03
2018-01-28T08:14:22.394Z,1021.86
2018-01-28T08:15:22.353Z,1021.82
2018-01-28T08:16:22.318Z,1021.96
2018-01-28T08:17:22.280Z,1021.93
2018-01-28T08:18:22.243Z,1021.91
2018-01-28T08:19:22.204Z,1021.99
2018-01-28T08:20:22.166Z,1021.92
2018-01-28T08:21:22.145Z,1021.93
2018-01-28T08:22:22.090Z,1021.97
2018-01-28T08:23:22.055Z,1021.91
2018-01-28T08:24:22.016Z,1022.03
2018-01-28T08:25:21.976Z,1022.02
2018-01-28T08:26:21.940Z,1022.00
2018-01-28T08:27:21.901Z,1022.02
2018-01-28T08:28:21.863Z,1021.93
2018-01-28T08:29:21.826Z,1021.99
2018-01-28T08:30:21.788Z,1021.88
2018-01-28T08:31:21.752Z,1021.87
2018-01-28T08:32:21.713Z,1021.90
2018-01-28T08:33:21.678Z,1021.87
2018-01-28T08:34:21.641Z,1021.83
2018-01-28T08:35:21.600Z,1021.82
2018-01-28T08:36:21.566Z,1021.85
2018-01-28T08:37:21.540Z,1021.97
2018-01-28T08:38:21.518Z,1021.97
2018-01-28T08:39:21.452Z,1021.91
2018-01-28T08:40:21.415Z,1021.97
2018-01-28T08:41:21.376Z,1021.99
2018-01-28T08:42:21.337Z,1022.02
2018-01-28T08:43:21.300Z,1022.12
2018-01-28T08:44:21.266Z,1022.24
2018-01-28T08:45:21.224Z,1022.10
2018-01-28T08:46:21.195Z,1022.15
2018-01-28T08:47:21.148Z,1022.13
2018-01-28T08:48:21.114Z,1022.21
2018-01-28T08:49:21.076Z,1022.13
2018-01-28T08:50:21.038Z,1022.21
2018-01-28T08:51:20.998Z,1022.10
2018-01-28T08:52:20.964Z,1022.23
2018-01-28T08:53:20.930Z,1022.22
2018-01-28T08:54:20.888Z,1022.25
2018-01-28T08:55:20.850Z,1022.18
2018-01-28T08:56:20.832Z,1022.29
2018-01-28T08:57:20.776Z,1022.17
2018-01-28T08:58:20.740Z,1022.28
2018-01-28T08:59:20.702Z,1022.28
2018-01-28T09:00:20.693Z,1022.35
2018-01-28T09:01:20.626Z,1022.36
2018-01-28T09:02:20.591Z,1022.38
2018-01-28T09:03:20.698Z,1022.39
2018-01-28T09:04:20.514Z,1022.29
2018-01-28T09:05:20.984Z,1022.36
2018-01-28T09:06:20.440Z,1022.41
2018-01-28T09:07:20.412Z,1022.39
2018-01-28T09:08:20.363Z,1022.37
2018-01-28T09:09:20.329Z,1022.46
2018-01-28T09:10:20.287Z,1022.43
2018-01-28T09:11:20.252Z,1022.39
2018-01-28T09:12:20.214Z,1022.44
2018-01-28T09:13:20.177Z,1022.45
2018-01-28T09:14:20.141Z,1022.33
2018-01-28T09:15:20.101Z,1022.33
2018-01-28T09:16:20.064Z,1022.39
2018-01-28T09:17:20.027Z,1022.39
2018-01-28T09:18:19.991Z,1022.34
2018-01-28T09:19:19.951Z,1022.26
2018-01-28T09:20:19.915Z,1022.31
2018-01-28T09:21:19.879Z,1022.32
2018-01-28T09:22:19.841Z,1022.39
2018-01-28T09:23:19.801Z,1022.27
2018-01-28T09:24:19.767Z,1022.22
2018-01-28T09:25:19.730Z,1022.31
2018-01-28T09:26:19.690Z,1022.20
2018-01-28T09:27:19.653Z,1022.35
2018-01-28T09:28:19.620Z,1022.22
2018-01-28T09:29:19.584Z,1022.30
2018-01-28T09:30:19.549Z,1022.33
2018-01-28T09:31:19.506Z,1022.40
2018-01-28T09:32:19.468Z,1022.38
2018-01-28T09:33:19.431Z,1022.42
2018-01-28T09:34:19.394Z,1022.48
2018-01-28T09:35:19.357Z,1022.38
2018-01-28T09:36:19.320Z,1022.41
2018-01-28T09:37:19.280Z,1022.42
2018-01-28T09:38:19.247Z,1022.47
2018-01-28T09:39:19.211Z,1022.49
2018-01-28T09:40:19.168Z,1022.53
2018-01-28T09:41:19.135Z,1022.49
2018-01-28T09:42:19.095Z,1022.63
2018-01-28T09:43:19.059Z,1022.33
2018-01-28T09:44:19.023Z,1022.56
2018-01-28T09:45:18.985Z,1022.65
2018-01-28T09:46:18.949Z,1022.63
2018-01-28T09:47:18.909Z,1022.60
2018-01-28T09:48:18.875Z,1022.59
2018-01-28T09:49:18.836Z,1022.55
2018-01-28T09:50:18.799Z,1022.68
2018-01-28T09:51:18.763Z,1022.66
2018-01-28T09:52:18.728Z,1022.63
2018-01-28T09:53:18.690Z,1022.67
2018-01-28T09:54:18.716Z,1022.66
2018-01-28T09:55:18.612Z,1022.67
2018-01-28T09:56:18.578Z,1022.69
2018-01-28T09:57:18.540Z,1022.69
2018-01-28T09:58:18.500Z,1022.73
2018-01-28T09:59:18.559Z,1022.81
2018-01-28T10:00:18.427Z,1022.80
2018-01-28T10:01:18.390Z,1022.75
2018-01-28T10:02:18.570Z,1022.78
2018-01-28T10:03:18.318Z,1022.83
2018-01-28T10:04:18.280Z,1022.89
2018-01-28T10:05:18.241Z,1022.84
2018-01-28T10:06:18.206Z,1022.89
2018-01-28T10:07:18.167Z,1022.90
2018-01-28T10:08:18.130Z,1022.96
2018-01-28T10:09:18.094Z,1022.92
2018-01-28T10:10:18.060Z,1022.83
2018-01-28T10:11:18.020Z,1022.93
2018-01-28T10:12:17.983Z,1022.95
2018-01-28T10:13:17.944Z,1022.86
2018-01-28T10:14:17.909Z,1022.90
2018-01-28T10:15:17.873Z,1023.02
2018-01-28T10:16:17.831Z,1023.01
2018-01-28T10:17:17.799Z,1022.98
2018-01-28T10:18:17.762Z,1023.02
2018-01-28T10:19:17.723Z,1022.98
2018-01-28T10:20:17.686Z,1023.06
2018-01-28T10:21:17.651Z,1023.08
2018-01-28T10:22:17.618Z,1023.09
2018-01-28T10:23:17.574Z,1023.13
2018-01-28T10:24:17.540Z,1023.08
2018-01-28T10:25:17.508Z,1023.10
2018-01-28T10:26:17.465Z,1023.07
2018-01-28T10:27:17.430Z,1023.13
2018-01-28T10:28:17.393Z,1023.12
2018-01-28T10:29:17.355Z,1023.20
2018-01-28T10:30:17.317Z,1023.28
2018-01-28T10:31:17.283Z,1023.16
2018-01-28T10:32:17.244Z,1023.20
2018-01-28T10:33:17.226Z,1023.29
2018-01-28T10:34:17.170Z,1023.29
2018-01-28T10:35:17.132Z,1023.33
2018-01-28T10:36:17.097Z,1023.28
2018-01-28T10:37:17.061Z,1023.18
2018-01-28T10:38:17.023Z,1023.14
2018-01-28T10:39:17.044Z,1022.97
2018-01-28T10:40:16.949Z,1023.09
2018-01-28T10:41:16.914Z,1023.24
2018-01-28T10:42:16.879Z,1023.22
2018-01-28T10:43:16.837Z,1023.21
2018-01-28T10:45:16.767Z,1023.25
2018-01-28T10:46:16.771Z,1023.24
2018-01-28T10:47:16.692Z,1023.28
2018-01-28T10:48:16.656Z,1023.29
2018-01-28T10:49:16.619Z,1023.26
2018-01-28T10:50:16.582Z,1023.26
2018-01-28T10:51:16.546Z,1023.28
2018-01-28T10:52:16.511Z,1023.13
2018-01-28T10:53:16.470Z,1023.17
2018-01-28T10:54:16.437Z,1023.27
2018-01-28T10:55:16.397Z,1023.13
2018-01-28T10:56:16.359Z,1023.31
2018-01-28T10:57:16.325Z,1023.29
2018-01-28T10:58:16.286Z,1023.34
2018-01-28T10:59:16.250Z,1023.27
2018-01-28T11:00:16.215Z,1023.30
2018-01-28T11:01:16.177Z,1023.34
2018-01-28T11:02:16.138Z,1023.36
2018-01-28T11:03:16.104Z,1023.33
2018-01-28T11:04:16.068Z,1023.38
2018-01-28T11:05:16.031Z,1023.35
2018-01-28T11:06:15.993Z,1023.28
2018-01-28T11:07:15.950Z,1023.32
2018-01-28T11:08:15.920Z,1023.21
2018-01-28T11:09:15.885Z,1023.24
2018-01-28T11:10:15.845Z,1023.28
2018-01-28T11:11:15.809Z,1023.26
2018-01-28T11:12:15.773Z,1023.27
2018-01-28T11:13:15.736Z,1023.22
2018-01-28T11:14:15.701Z,1023.25
2018-01-28T11:15:15.662Z,1023.24
2018-01-28T11:16:15.628Z,1023.20
2018-01-28T11:17:15.587Z,1023.24
2018-01-28T11:18:15.555Z,1023.21
2018-01-28T11:19:15.517Z,1023.17
2018-01-28T11:20:15.479Z,1023.22
2018-01-28T11:21:15.444Z,1023.16
2018-01-28T11:22:15.407Z,1023.15
2018-01-28T11:23:15.370Z,1023.06
2018-01-28T11:24:15.355Z,1023.05
2018-01-28T11:25:15.296Z,1023.06
2018-01-28T11:26:15.261Z,1023.05
2018-01-28T11:27:15.221Z,1023.09
2018-01-28T11:28:15.186Z,1022.96
2018-01-28T11:29:15.151Z,1023.07
2018-01-28T11:30:15.115Z,1022.98
2018-01-28T11:31:15.079Z,1023.02
2018-01-28T11:32:15.043Z,1022.98
2018-01-28T11:33:15.010Z,1023.03
2018-01-28T11:34:14.971Z,1022.81
2018-01-28T11:35:14.931Z,1022.98
2018-01-28T11:36:14.896Z,1022.86
2018-01-28T11:37:14.862Z,1022.89
2018-01-28T11:38:14.822Z,1022.83
2018-01-28T11:39:14.885Z,1022.77
2018-01-28T11:40:14.752Z,1022.84
2018-01-28T11:41:14.714Z,1023.02
2018-01-28T11:42:14.680Z,1022.93
2018-01-28T11:43:14.641Z,1022.91
2018-01-28T11:44:14.647Z,1023.01
2018-01-28T11:45:14.568Z,1022.94
2018-01-28T11:46:14.550Z,1022.96
2018-01-28T11:47:14.534Z,1022.94
2018-01-28T11:48:14.461Z,1022.95
2018-01-28T11:49:14.457Z,1023.01
2018-01-28T11:50:14.390Z,1022.96
2018-01-28T11:51:14.889Z,1022.95
2018-01-28T11:52:14.353Z,1022.93
2018-01-28T11:53:14.279Z,1022.97
2018-01-28T11:54:14.244Z,1023.00
2018-01-28T11:55:14.248Z,1022.89
2018-01-28T11:56:14.272Z,1022.92
2018-01-28T11:57:14.140Z,1022.92
2018-01-28T11:58:14.139Z,1022.87
2018-01-28T11:59:14.102Z,1022.86
2018-01-28T12:00:14.045Z,1022.91
2018-01-28T12:01:14.023Z,1022.84
2018-01-28T12:02:13.957Z,1022.70
2018-01-28T12:03:13.940Z,1022.70
2018-01-28T12:04:13.909Z,1022.85
2018-01-28T12:05:13.851Z,1022.90
2018-01-28T12:06:13.824Z,1022.89
2018-01-28T12:07:13.789Z,1023.01